Hovedside
METAR-TAF:

METAR-TAF

Lufthavner :

Notodden lufthavn

Notodden, Norge

breddegrad: 59-34N, lengdegrad: 009-13E, høyde over havet: 19 m

Gjeldene værobservasjon

Denne rapporten ble laget for 12 timer og 6 minutter siden, klokken 16:50 UTC
Flau vind
Temperatur 12°C
Luftfuktighet 88%
Trykk 1012 hPa
Sikt 10 km eller mer
Spredte skyer i en høyde av 4000 ft
Spredte skyer i en høyde av 9000 ft

METAR: ENNO 151650Z 00000KT 9999 SCT040 SCT090 12/10 Q1012

Tid: 06:56 (04:56 UTC)

Varsel

Denne rapporten ble laget for 17 timer og 56 minutter siden, klokken 11:00 UTC
Varsel gyldig fra 15. klokken 12 UTC til 15. klokken 17 UTC
Vind 5 kt fra skiftende retning
Sikt 10 km eller mer
Brutte skyer i en høyde av 2000 ft
Blir
fra 15. klokken 12 UTC til 15. klokken 14 UTC
Spredte skyer i en høyde av 3000 ft

TAF: ENNO 151100Z 1512/1517 VRB05KT 9999 BKN020 BECMG 1512/1514 SCT030

Værobservasjoner og værvarsel for over 4000 flyplasser (METAR- og TAF-rapporter).

Tilgjengelige stasjoner er representert av de røde og gule prikkene på kartet.

Hold musepekeren over prikken for å se navnet på stasjonen.

Klikk så for å se værobservasjoner og -varsler.

For å forandre kartet kan du klikke på den grønne knappen med svart kryss for å zoome inn, på den grønne knappen med strek for å zoome ut, eller på de grønne pilene for å se tilstøtende kart.


METAR-TAF: